createdAt,value
2023-09-25T00:02:10.101Z,3.53
2023-09-25T00:04:37.891Z,4.40
2023-09-25T00:07:11.594Z,3.28
2023-09-25T00:09:39.734Z,3.97
2023-09-25T00:12:08.144Z,6.13
2023-09-25T00:14:35.927Z,6.30
2023-09-25T00:17:06.935Z,7.78
2023-09-25T00:19:34.616Z,6.30
2023-09-25T00:22:02.929Z,9.73
2023-09-25T00:24:30.538Z,8.52
2023-09-25T00:26:57.985Z,10.50
2023-09-25T00:29:32.890Z,10.15
2023-09-25T00:32:00.519Z,7.43
2023-09-25T00:34:30.537Z,8.00
2023-09-25T00:36:58.489Z,9.45
2023-09-25T00:39:25.921Z,5.13
2023-09-25T00:41:53.572Z,8.05
2023-09-25T00:44:30.478Z,6.22
2023-09-25T00:46:58.672Z,5.85
2023-09-25T00:49:29.471Z,4.57
2023-09-25T00:51:59.470Z,8.70
2023-09-25T00:54:41.467Z,7.35
2023-09-25T00:57:18.475Z,5.55
2023-09-25T00:59:49.357Z,5.35
2023-09-25T01:02:20.456Z,4.38
2023-09-25T01:04:50.785Z,5.75
2023-09-25T01:07:40.473Z,5.07
2023-09-25T01:10:15.891Z,4.78
2023-09-25T01:12:54.547Z,3.03
2023-09-25T01:15:26.693Z,3.53
2023-09-25T01:17:54.654Z,5.30
2023-09-25T01:20:24.028Z,4.30
2023-09-25T01:22:58.596Z,4.55
2023-09-25T01:25:26.117Z,6.13
2023-09-25T01:27:54.756Z,4.78
2023-09-25T01:30:22.911Z,4.68
2023-09-25T01:32:53.276Z,4.68
2023-09-25T01:35:25.288Z,4.82
2023-09-25T01:38:01.328Z,4.75
2023-09-25T01:40:29.258Z,2.30
2023-09-25T01:42:57.063Z,4.03
2023-09-25T01:45:24.816Z,2.97
2023-09-25T01:47:55.088Z,4.85
2023-09-25T01:50:28.687Z,4.82
2023-09-25T01:53:03.153Z,5.82
2023-09-25T01:55:38.034Z,5.50
2023-09-25T01:58:07.851Z,5.45
2023-09-25T02:00:42.118Z,12.75
2023-09-25T02:03:10.048Z,3.83
2023-09-25T02:05:38.123Z,5.38
2023-09-25T02:08:06.015Z,3.67
2023-09-25T02:10:35.795Z,3.92
2023-09-25T02:13:03.645Z,4.38
2023-09-25T02:15:31.328Z,5.05
2023-09-25T02:17:59.198Z,5.22
2023-09-25T02:20:27.250Z,4.03
2023-09-25T02:22:55.047Z,5.80
2023-09-25T02:25:22.286Z,5.40
2023-09-25T02:27:50.394Z,3.80
2023-09-25T02:30:18.346Z,6.10
2023-09-25T02:32:47.022Z,7.38
2023-09-25T02:35:15.090Z,3.65
2023-09-25T02:37:46.245Z,6.35
2023-09-25T02:40:16.988Z,4.93
2023-09-25T02:42:49.036Z,4.82
2023-09-25T02:45:18.135Z,5.20
2023-09-25T02:47:48.088Z,3.10
2023-09-25T02:50:16.971Z,5.50
2023-09-25T02:52:49.604Z,6.35
2023-09-25T02:55:16.925Z,5.45
2023-09-25T02:57:47.859Z,4.28
2023-09-25T03:00:18.698Z,4.68
2023-09-25T03:02:46.824Z,4.20
2023-09-25T03:05:17.308Z,4.20
2023-09-25T03:07:49.154Z,7.00
2023-09-25T03:10:17.218Z,4.18
2023-09-25T03:12:46.595Z,5.35
2023-09-25T03:15:14.356Z,5.22
2023-09-25T03:17:43.935Z,4.85
2023-09-25T03:20:17.725Z,5.68
2023-09-25T03:22:52.792Z,4.53
2023-09-25T03:25:21.400Z,7.85
2023-09-25T03:27:51.078Z,3.97
2023-09-25T03:30:18.939Z,4.30
2023-09-25T03:32:46.526Z,8.85
2023-09-25T03:35:18.633Z,7.25
2023-09-25T03:37:46.379Z,6.25
2023-09-25T03:40:14.417Z,4.93
2023-09-25T03:42:44.852Z,10.80
2023-09-25T03:45:15.976Z,4.15
2023-09-25T03:47:43.342Z,5.97
2023-09-25T03:50:12.279Z,7.82
2023-09-25T03:52:39.962Z,4.72
2023-09-25T03:55:11.037Z,9.55
2023-09-25T03:57:38.216Z,5.03
2023-09-25T04:00:13.605Z,7.32
2023-09-25T04:02:41.370Z,6.38
2023-09-25T04:05:15.006Z,6.18
2023-09-25T04:07:42.794Z,5.60
2023-09-25T04:10:10.745Z,5.57
2023-09-25T04:12:41.000Z,9.65
2023-09-25T04:15:14.173Z,4.38
2023-09-25T04:17:42.786Z,12.02
2023-09-25T04:20:19.218Z,5.15
2023-09-25T04:22:49.609Z,8.68
2023-09-25T04:25:20.802Z,7.15
2023-09-25T04:30:31.478Z,5.78
2023-09-25T04:32:58.878Z,7.57
2023-09-25T04:35:26.708Z,5.18
2023-09-25T04:37:55.725Z,5.60
2023-09-25T04:40:26.531Z,5.10
2023-09-25T04:42:54.687Z,6.85
2023-09-25T04:45:29.894Z,9.13
2023-09-25T04:47:59.707Z,5.68
2023-09-25T04:50:27.428Z,8.60
2023-09-25T04:52:55.441Z,5.70
2023-09-25T04:55:24.252Z,5.95
2023-09-25T04:57:52.406Z,8.75
2023-09-25T05:00:26.622Z,5.15
2023-09-25T05:02:58.369Z,12.20
2023-09-25T05:05:29.118Z,7.07
2023-09-25T05:07:59.301Z,8.27
2023-09-25T05:10:49.740Z,9.32
2023-09-25T05:13:19.515Z,7.03
2023-09-25T05:15:50.606Z,7.75
2023-09-25T05:18:20.324Z,6.20
2023-09-25T05:20:50.421Z,12.35
2023-09-25T05:23:24.355Z,5.95
2023-09-25T05:26:02.348Z,7.55
2023-09-25T05:28:33.176Z,8.10
2023-09-25T05:31:12.116Z,5.93
2023-09-25T05:34:03.488Z,6.78
2023-09-25T05:36:41.244Z,6.60
2023-09-25T05:39:40.542Z,5.10
2023-09-25T05:42:31.926Z,6.05
2023-09-25T05:45:02.787Z,6.95
2023-09-25T05:47:35.926Z,8.30
2023-09-25T05:50:08.124Z,7.53
2023-09-25T05:52:39.445Z,8.05
2023-09-25T05:55:08.498Z,9.57
2023-09-25T05:57:40.754Z,9.75
2023-09-25T06:00:36.140Z,6.45
2023-09-25T06:03:24.083Z,11.30
2023-09-25T06:06:13.782Z,5.82
2023-09-25T06:08:46.182Z,4.90
2023-09-25T06:11:24.866Z,7.82
2023-09-25T06:14:09.963Z,6.20
2023-09-25T06:20:38.780Z,9.52
2023-09-25T06:23:16.159Z,9.73
2023-09-25T06:26:04.905Z,8.43
2023-09-25T06:28:52.173Z,7.07
2023-09-25T06:31:20.790Z,5.63
2023-09-25T06:33:55.981Z,8.15
2023-09-25T06:36:46.829Z,13.20
2023-09-25T06:39:20.115Z,5.25
2023-09-25T06:42:09.037Z,5.35
2023-09-25T06:47:56.455Z,8.40
2023-09-25T06:50:33.158Z,8.80
2023-09-25T06:53:27.072Z,5.18
2023-09-25T06:56:04.278Z,8.10
2023-09-25T06:58:42.591Z,8.85
2023-09-25T07:04:24.983Z,8.18
2023-09-25T07:13:14.410Z,5.32
2023-09-25T07:16:50.106Z,5.13
2023-09-25T07:19:19.843Z,5.60
2023-09-25T07:22:03.962Z,5.18
2023-09-25T07:25:08.627Z,6.57
2023-09-25T07:30:18.148Z,6.75
2023-09-25T07:33:03.071Z,8.05
2023-09-25T07:35:51.975Z,8.07
2023-09-25T07:38:32.025Z,6.55
2023-09-25T07:41:22.476Z,5.93
2023-09-25T07:44:27.895Z,5.55
2023-09-25T07:47:09.157Z,7.88
2023-09-25T07:49:46.537Z,7.28
2023-09-25T07:52:22.323Z,6.20
2023-09-25T07:54:54.715Z,7.63
2023-09-25T07:57:25.472Z,5.68
2023-09-25T08:00:18.904Z,10.90
2023-09-25T08:03:01.742Z,8.57
2023-09-25T08:06:12.278Z,9.30
2023-09-25T08:08:50.655Z,5.63
2023-09-25T08:11:28.152Z,10.13
2023-09-25T08:15:27.632Z,7.03
2023-09-25T08:17:39.316Z,12.32
2023-09-25T08:20:27.636Z,11.05
2023-09-25T08:23:04.858Z,4.72
2023-09-25T08:25:41.621Z,7.78
2023-09-25T08:28:33.165Z,5.80
2023-09-25T08:31:25.609Z,8.52
2023-09-25T08:33:56.224Z,5.38
2023-09-25T08:36:41.246Z,8.23
2023-09-25T08:42:02.803Z,5.60
2023-09-25T08:44:36.233Z,4.43
2023-09-25T08:47:06.529Z,4.75
2023-09-25T08:49:59.860Z,5.45
2023-09-25T08:52:32.800Z,4.55
2023-09-25T08:55:20.704Z,5.95
2023-09-25T08:58:19.878Z,5.05
2023-09-25T09:00:50.319Z,6.00
2023-09-25T09:03:50.102Z,6.35
2023-09-25T09:06:30.421Z,5.13
2023-09-25T09:09:11.162Z,6.72
2023-09-25T09:11:44.109Z,7.13
2023-09-25T09:15:09.849Z,6.55
2023-09-25T09:17:43.345Z,9.13
2023-09-25T09:20:27.691Z,7.28
2023-09-25T09:23:12.623Z,6.18
2023-09-25T09:26:09.006Z,5.78
2023-09-25T09:28:53.038Z,4.80
2023-09-25T09:35:03.894Z,4.40
2023-09-25T09:37:43.741Z,7.65
2023-09-25T09:40:18.943Z,7.22
2023-09-25T09:42:54.657Z,4.60
2023-09-25T09:46:02.014Z,5.57
2023-09-25T09:49:14.302Z,4.13
2023-09-25T09:52:05.900Z,4.97
2023-09-25T09:54:56.782Z,5.30
2023-09-25T09:58:00.762Z,5.30
2023-09-25T10:00:32.263Z,6.07
2023-09-25T10:03:01.739Z,7.13
2023-09-25T10:06:21.401Z,4.65
2023-09-25T10:09:09.268Z,6.15
2023-09-25T10:12:01.021Z,9.45
2023-09-25T10:14:40.754Z,7.90
2023-09-25T10:17:08.580Z,8.00
2023-09-25T10:19:52.153Z,6.05
2023-09-25T10:23:01.427Z,4.00
2023-09-25T10:26:12.035Z,8.85
2023-09-25T10:28:45.296Z,5.57
2023-09-25T10:31:27.864Z,5.85
2023-09-25T10:34:04.669Z,9.82
2023-09-25T10:36:41.282Z,6.90
2023-09-25T10:39:17.077Z,6.05
2023-09-25T10:41:48.320Z,7.30
2023-09-25T10:44:39.332Z,8.32
2023-09-25T10:47:14.188Z,6.07
2023-09-25T10:49:53.667Z,8.38
2023-09-25T10:52:34.120Z,6.43
2023-09-25T10:55:03.309Z,6.90
2023-09-25T10:57:33.089Z,9.20
2023-09-25T11:00:14.408Z,7.45
2023-09-25T11:02:45.312Z,5.97
2023-09-25T11:05:37.949Z,6.10
2023-09-25T11:11:18.250Z,5.97
2023-09-25T11:13:54.583Z,7.25
2023-09-25T11:16:30.544Z,6.13
2023-09-25T11:19:28.983Z,7.13
2023-09-25T11:22:31.608Z,10.32
2023-09-25T11:25:50.436Z,10.27
2023-09-25T11:28:45.822Z,5.80
2023-09-25T11:31:29.487Z,5.95
2023-09-25T11:34:09.518Z,9.32
2023-09-25T11:36:58.973Z,7.63
2023-09-25T11:39:33.953Z,10.50
2023-09-25T11:42:18.924Z,8.10
2023-09-25T11:44:56.401Z,7.95
2023-09-25T11:47:33.287Z,7.72
2023-09-25T11:50:33.534Z,7.07
2023-09-25T11:53:09.122Z,8.32
2023-09-25T11:55:54.438Z,7.97
2023-09-25T11:58:27.156Z,7.43
2023-09-25T12:01:02.008Z,6.30
2023-09-25T12:03:29.454Z,6.72
2023-09-25T12:05:59.422Z,8.35
2023-09-25T12:08:26.820Z,11.63
2023-09-25T12:10:59.234Z,9.63
2023-09-25T12:17:13.611Z,6.32
2023-09-25T12:20:19.855Z,7.35
2023-09-25T12:22:48.313Z,6.90
2023-09-25T12:33:36.884Z,8.35
2023-09-25T12:40:17.449Z,9.95
2023-09-25T12:43:12.466Z,6.28
2023-09-25T12:45:43.565Z,6.97
2023-09-25T12:51:18.418Z,6.40
2023-09-25T12:53:48.190Z,7.65
2023-09-25T12:56:21.379Z,6.97
2023-09-25T12:58:49.536Z,7.45
2023-09-25T13:04:37.151Z,7.63
2023-09-25T13:07:25.663Z,7.25
2023-09-25T13:10:09.249Z,4.13
2023-09-25T13:13:35.134Z,7.38
2023-09-25T13:16:19.466Z,6.40
2023-09-25T13:19:21.774Z,5.10
2023-09-25T13:21:55.891Z,5.97
2023-09-25T13:24:32.684Z,7.50
2023-09-25T13:27:00.628Z,7.63
2023-09-25T13:29:28.319Z,6.30
2023-09-25T13:31:59.218Z,6.97
2023-09-25T13:34:28.304Z,6.57
2023-09-25T13:40:04.205Z,8.45
2023-09-25T13:42:42.643Z,8.88
2023-09-25T13:45:17.246Z,9.00
2023-09-25T13:47:49.385Z,9.48
2023-09-25T13:50:20.897Z,10.43
2023-09-25T13:52:54.369Z,10.10
2023-09-25T13:55:30.219Z,10.25
2023-09-25T13:57:59.218Z,11.57
2023-09-25T14:00:30.012Z,9.57
2023-09-25T14:03:08.226Z,10.68
2023-09-25T14:05:46.752Z,8.93
2023-09-25T14:08:21.195Z,8.55
2023-09-25T14:10:51.867Z,5.25
2023-09-25T14:13:21.937Z,7.90
2023-09-25T14:15:52.014Z,11.15
2023-09-25T14:18:20.345Z,6.28
2023-09-25T14:20:51.138Z,7.93
2023-09-25T14:23:19.104Z,6.75
2023-09-25T14:25:46.631Z,10.85
2023-09-25T14:28:14.420Z,7.13
2023-09-25T14:30:42.233Z,5.80
2023-09-25T14:33:10.373Z,6.07
2023-09-25T14:35:40.700Z,9.43
2023-09-25T14:38:09.270Z,7.35
2023-09-25T14:40:36.649Z,6.28
2023-09-25T14:43:05.309Z,6.47
2023-09-25T14:45:32.693Z,6.75
2023-09-25T14:48:00.258Z,9.13
2023-09-25T14:50:27.621Z,7.43
2023-09-25T14:52:55.380Z,7.85
2023-09-25T14:55:25.983Z,5.35
2023-09-25T14:57:54.034Z,6.22
2023-09-25T15:00:21.809Z,9.60
2023-09-25T15:02:50.063Z,5.10
2023-09-25T15:05:18.055Z,9.20
2023-09-25T15:07:46.649Z,7.75
2023-09-25T15:10:13.921Z,5.68
2023-09-25T15:12:41.584Z,6.88
2023-09-25T15:15:09.700Z,6.35
2023-09-25T15:17:37.613Z,5.78
2023-09-25T15:20:07.137Z,4.78
2023-09-25T15:22:34.584Z,5.72
2023-09-25T15:25:02.240Z,5.53
2023-09-25T15:27:31.649Z,4.57
2023-09-25T15:29:59.234Z,5.95
2023-09-25T15:32:28.238Z,5.88
2023-09-25T15:34:55.573Z,6.82
2023-09-25T15:37:23.686Z,8.07
2023-09-25T15:39:51.807Z,5.53
2023-09-25T15:42:19.536Z,5.82
2023-09-25T15:44:47.431Z,6.18
2023-09-25T15:47:15.645Z,8.77
2023-09-25T15:49:43.850Z,5.13
2023-09-25T15:52:29.674Z,6.82
2023-09-25T15:55:02.507Z,4.93
2023-09-25T15:57:32.849Z,8.27
2023-09-25T16:00:00.436Z,6.88
2023-09-25T16:02:28.010Z,6.95
2023-09-25T16:04:55.615Z,7.53
2023-09-25T16:07:29.315Z,6.47
2023-09-25T16:10:03.245Z,7.93
2023-09-25T16:12:32.210Z,6.65
2023-09-25T16:14:59.742Z,8.00
2023-09-25T16:17:28.014Z,6.90
2023-09-25T16:19:55.276Z,4.68
2023-09-25T16:22:23.039Z,7.00
2023-09-25T16:24:50.809Z,9.82
2023-09-25T16:27:18.136Z,9.13
2023-09-25T16:29:45.725Z,10.90
2023-09-25T16:32:12.974Z,8.43
2023-09-25T16:34:40.334Z,9.65
2023-09-25T16:37:08.410Z,7.05
2023-09-25T16:39:35.592Z,7.55
2023-09-25T16:42:03.432Z,8.45
2023-09-25T16:44:36.423Z,9.55
2023-09-25T16:47:03.887Z,7.68
2023-09-25T16:49:31.511Z,8.73
2023-09-25T16:51:59.738Z,9.38
2023-09-25T16:54:27.332Z,6.50
2023-09-25T16:56:54.511Z,9.63
2023-09-25T17:02:27.040Z,8.68
2023-09-25T17:04:57.506Z,9.00
2023-09-25T17:07:25.130Z,9.05
2023-09-25T17:09:58.589Z,7.43
2023-09-25T17:12:29.045Z,6.90
2023-09-25T17:14:56.331Z,8.90
2023-09-25T17:17:25.544Z,12.18
2023-09-25T17:22:22.282Z,11.27
2023-09-25T17:24:49.920Z,15.70
2023-09-25T17:27:20.297Z,11.38
2023-09-25T17:29:47.944Z,13.57
2023-09-25T17:32:15.349Z,15.23
2023-09-25T17:34:45.993Z,20.08
2023-09-25T17:37:16.070Z,16.73
2023-09-25T17:39:46.817Z,22.65
2023-09-25T17:42:13.991Z,30.00
2023-09-25T17:44:42.052Z,24.70
2023-09-25T17:47:09.750Z,21.98
2023-09-25T17:49:38.388Z,17.92
2023-09-25T17:52:21.807Z,17.92
2023-09-25T17:54:51.820Z,14.20
2023-09-25T17:57:20.350Z,16.13
2023-09-25T17:59:50.656Z,13.05
2023-09-25T18:02:21.561Z,18.15
2023-09-25T18:04:48.738Z,13.60
2023-09-25T18:07:16.805Z,16.77
2023-09-25T18:09:45.482Z,16.42
2023-09-25T18:12:12.689Z,12.95
2023-09-25T18:14:40.052Z,16.02
2023-09-25T18:17:07.781Z,9.93
2023-09-25T18:19:38.280Z,11.63
2023-09-25T18:22:08.621Z,9.95
2023-09-25T18:24:36.333Z,15.52
2023-09-25T18:27:05.331Z,17.65
2023-09-25T18:29:33.572Z,17.25
2023-09-25T18:32:01.198Z,15.63
2023-09-25T18:34:28.362Z,13.07
2023-09-25T18:36:56.179Z,9.98
2023-09-25T18:39:27.053Z,10.90
2023-09-25T18:41:55.444Z,11.35
2023-09-25T18:44:24.308Z,11.13
2023-09-25T18:46:54.311Z,15.32
2023-09-25T18:49:22.681Z,15.13
2023-09-25T18:51:53.085Z,12.35
2023-09-25T18:54:20.931Z,11.60
2023-09-25T18:56:51.638Z,15.13
2023-09-25T18:59:21.472Z,10.77
2023-09-25T19:01:49.238Z,16.92
2023-09-25T19:04:16.996Z,12.23
2023-09-25T19:06:46.622Z,13.48
2023-09-25T19:09:16.143Z,12.70
2023-09-25T19:11:46.769Z,13.02
2023-09-25T19:14:16.791Z,12.85
2023-09-25T19:16:45.382Z,16.35
2023-09-25T19:19:15.563Z,12.48
2023-09-25T19:21:43.073Z,13.05
2023-09-25T19:24:15.713Z,16.70
2023-09-25T19:26:43.240Z,11.27
2023-09-25T19:29:10.525Z,13.32
2023-09-25T19:31:42.163Z,11.45
2023-09-25T19:34:11.678Z,12.05
2023-09-25T19:36:42.491Z,13.43
2023-09-25T19:39:10.265Z,10.93
2023-09-25T19:41:37.721Z,10.55
2023-09-25T19:44:08.738Z,8.95
2023-09-25T19:46:39.844Z,14.88
2023-09-25T19:49:07.613Z,11.57
2023-09-25T19:51:40.022Z,9.30
2023-09-25T19:54:08.105Z,14.80
2023-09-25T19:56:35.528Z,15.38
2023-09-25T19:59:03.495Z,11.75
2023-09-25T20:01:31.271Z,13.98
2023-09-25T20:03:58.796Z,11.63
2023-09-25T20:06:27.843Z,10.20
2023-09-25T20:08:56.371Z,11.30
2023-09-25T20:11:23.631Z,11.13
2023-09-25T20:13:53.444Z,12.95
2023-09-25T20:16:24.273Z,11.35
2023-09-25T20:18:52.014Z,8.77
2023-09-25T20:21:19.392Z,11.35
2023-09-25T20:23:47.727Z,12.32
2023-09-25T20:26:15.193Z,9.95
2023-09-25T20:28:45.175Z,8.82
2023-09-25T20:31:13.103Z,8.07
2023-09-25T20:33:43.012Z,9.13
2023-09-25T20:36:10.692Z,12.10
2023-09-25T20:38:38.715Z,12.55
2023-09-25T20:41:06.776Z,12.80
2023-09-25T20:43:35.963Z,12.65
2023-09-25T20:46:03.967Z,9.32
2023-09-25T20:48:33.102Z,11.98
2023-09-25T20:51:03.680Z,16.45
2023-09-25T20:53:30.983Z,13.05
2023-09-25T20:55:58.421Z,10.85
2023-09-25T20:58:25.787Z,11.55
2023-09-25T21:00:56.952Z,9.80
2023-09-25T21:03:25.638Z,11.45
2023-09-25T21:05:55.394Z,11.45
2023-09-25T21:08:22.592Z,12.60
2023-09-25T21:10:50.184Z,11.50
2023-09-25T21:13:20.640Z,9.85
2023-09-25T21:15:48.274Z,10.75
2023-09-25T21:18:18.084Z,8.38
2023-09-25T21:20:48.313Z,11.30
2023-09-25T21:23:15.593Z,7.25
2023-09-25T21:25:45.642Z,8.48
2023-09-25T21:28:13.689Z,6.15
2023-09-25T21:30:42.110Z,10.40
2023-09-25T21:33:09.550Z,11.95
2023-09-25T21:35:37.534Z,6.35
2023-09-25T21:38:05.380Z,10.32
2023-09-25T21:40:32.929Z,10.05
2023-09-25T21:43:00.212Z,9.70
2023-09-25T21:45:27.470Z,10.38
2023-09-25T21:47:55.038Z,11.93
2023-09-25T21:50:22.576Z,6.18
2023-09-25T21:52:49.841Z,9.18
2023-09-25T21:55:18.592Z,8.48
2023-09-25T21:57:47.053Z,8.57
2023-09-25T22:00:17.902Z,6.10
2023-09-25T22:02:45.413Z,6.95
2023-09-25T22:05:12.930Z,6.55
2023-09-25T22:07:40.751Z,5.22
2023-09-25T22:10:12.085Z,6.88
2023-09-25T22:12:41.888Z,6.38
2023-09-25T22:15:12.625Z,7.57
2023-09-25T22:17:40.509Z,6.50
2023-09-25T22:20:14.423Z,8.40
2023-09-25T22:22:42.064Z,5.68
2023-09-25T22:25:11.304Z,6.68
2023-09-25T22:27:38.656Z,8.43
2023-09-25T22:30:08.348Z,7.72
2023-09-25T22:32:36.004Z,6.50
2023-09-25T22:35:05.622Z,9.13
2023-09-25T22:37:40.052Z,8.02
2023-09-25T22:40:27.421Z,7.22
2023-09-25T22:42:56.525Z,6.70
2023-09-25T22:45:23.812Z,8.57
2023-09-25T22:47:51.068Z,10.98
2023-09-25T22:50:18.363Z,9.15
2023-09-25T22:52:46.038Z,9.20
2023-09-25T22:55:13.291Z,14.90
2023-09-25T22:57:41.049Z,8.18
2023-09-25T23:02:58.970Z,8.93
2023-09-25T23:05:27.415Z,7.75
2023-09-25T23:08:01.263Z,8.30
2023-09-25T23:10:29.906Z,10.73
2023-09-25T23:12:57.201Z,6.40
2023-09-25T23:15:24.875Z,8.30
2023-09-25T23:17:52.862Z,9.18
2023-09-25T23:20:24.813Z,13.50
2023-09-25T23:22:59.883Z,13.48
2023-09-25T23:25:28.362Z,9.20
2023-09-25T23:27:56.611Z,7.63
2023-09-25T23:30:24.939Z,7.07
2023-09-25T23:32:52.937Z,6.95
2023-09-25T23:35:23.762Z,8.75
2023-09-25T23:37:51.888Z,10.48
2023-09-25T23:40:28.244Z,5.53
2023-09-25T23:42:55.678Z,8.40
2023-09-25T23:45:23.641Z,8.20
2023-09-25T23:47:54.739Z,6.90
2023-09-25T23:50:25.367Z,6.15
2023-09-25T23:52:57.902Z,7.57
2023-09-25T23:55:25.664Z,7.63
2023-09-25T23:57:53.018Z,6.95
